首页
METAR-TAF:

METAR-TAF

机场 :

Ottumwa Industrial Airport

Ottumwa, 艾奥瓦州, 美国

纬度: 41-06-24N, 经度: 092-26-53W, 海拔: 258米

当前天气观测

该预报发布于34分钟前的02:53 UTC
风速16节,风向南转南东
温度 4°C
湿度 75%
气压 1019 hPa
能見度: 14.5公里
天空无云

METAR: KOTM 170253Z AUTO 15016KT 9SM CLR 04/00 A3009 RMK AO2 SNE0154 SLP196 P0000 60000 T00390000 58002

时间: 21:27 (03:27 UTC)

预报

该预报发布于3小时和51分钟前的23:36 UTC
预报有效从17日的 00点(UTC)到 17日的 24点(UTC)
风速9节,风向东南
能見度: 10公里
散云层高于25000英尺
从 17日的 1200点(UTC)
风速6节,风向
能見度: 10公里
散云层高于3000英尺
多云层高于8000英尺
从 17日的 1500点(UTC)
风速5节,风向西南
能見度: 10公里
散云层高于1500英尺
阴天层高于2500英尺
附近有阵雨
从 17日的 1800点(UTC)
风速7节,风向西北
能見度: 10公里
阴天层高于800英尺
从 17日的 2200点(UTC)
风速7节,风向西北
能見度: 10公里
多云层高于1500英尺

TAF: KOTM 162336Z 1700/1724 13009KT P6SM SCT250 FM171200 18006KT P6SM SCT030 BKN080 FM171500 23005KT P6SM VCSH SCT015 OVC025 FM171800 32007KT P6SM OVC008 FM172200 32007KT P6SM BKN015

超过4000个机场的气象观测和天气预报(METAR&TAF报告)。

可查询的气象台以黄色和红色小点在地图上表示。

将鼠标移到小点上方,可查看气象台名称。

然后点击查看天气观测和预报。

如需切换地图:点击带黑十字的绿色按钮放大地图;点击带横线的绿色按钮缩小地图;或者点击绿色箭头查看邻近地区的地图。


METAR-TAF: